Time;durP1;ratioP1;P1;durP2;ratioP2;P2;SDS_P1;SDS_P2;PMS_P1;PMS_P2;Temp;Humidity;BMP_temperature;BMP_pressure;BME280_temperature;BME280_humidity;BME280_pressure;Samples;Min_cycle;Max_cycle;Signal;HPM_P1;HPM_P2
2022/09/28 00:01:19;;;;;;;4.80;1.43;;;12.20;99.90;;;;;;5091075;28;20402;-71
2022/09/28 00:03:47;;;;;;;4.70;1.60;;;12.10;99.90;;;;;;5089812;28;20408;-70
2022/09/28 00:06:15;;;;;;;5.05;1.90;;;12.20;99.90;;;;;;5090759;28;20959;-70
2022/09/28 00:08:41;;;;;;;3.60;1.40;;;12.10;99.90;;;;;;5090700;28;20406;-71
2022/09/28 00:11:11;;;;;;;4.60;1.80;;;12.20;99.90;;;;;;5091268;28;20501;-70
2022/09/28 00:13:37;;;;;;;4.25;1.20;;;12.20;99.90;;;;;;5089999;28;20441;-71
2022/09/28 00:16:10;;;;;;;2.78;1.30;;;12.30;99.90;;;;;;5091076;28;20452;-71
2022/09/28 00:18:36;;;;;;;3.33;1.33;;;12.30;99.90;;;;;;5087774;28;20406;-71
2022/09/28 00:21:08;;;;;;;5.20;1.47;;;12.30;99.90;;;;;;5090276;28;20451;-71
2022/09/28 00:24:11;;;;;;;2.80;1.35;;;12.30;99.90;;;;;;5083944;28;20405;-71
2022/09/28 00:26:20;;;;;;;3.38;1.60;;;12.20;99.90;;;;;;5090354;28;20891;-71
2022/09/28 00:28:46;;;;;;;3.17;1.00;;;12.30;99.90;;;;;;5090667;28;20409;-72
2022/09/28 00:31:11;;;;;;;4.53;1.70;;;12.30;99.90;;;;;;5085387;28;20422;-70
2022/09/28 00:33:39;;;;;;;5.10;1.70;;;12.30;99.90;;;;;;5083977;28;20576;-70
2022/09/28 00:36:05;;;;;;;4.18;1.40;;;12.20;99.90;;;;;;5071486;28;20429;-71
2022/09/28 00:38:30;;;;;;;2.80;1.30;;;12.30;99.90;;;;;;5084895;28;20430;-71
2022/09/28 00:40:56;;;;;;;3.78;1.40;;;12.30;99.90;;;;;;5090435;28;20413;-71
2022/09/28 00:43:23;;;;;;;4.75;1.30;;;12.40;99.90;;;;;;5090342;28;20885;-68
2022/09/28 00:45:56;;;;;;;3.42;1.17;;;12.30;99.90;;;;;;5090723;28;20512;-69
2022/09/28 00:48:23;;;;;;;3.77;1.23;;;12.30;99.90;;;;;;5089936;28;20777;-68
2022/09/28 00:50:49;;;;;;;2.40;1.10;;;12.30;99.90;;;;;;5090068;28;20402;-69
2022/09/28 00:53:23;;;;;;;3.92;1.00;;;12.30;99.90;;;;;;5090285;28;20421;-69
2022/09/28 00:55:51;;;;;;;3.63;1.20;;;12.20;99.90;;;;;;5090296;28;20397;-71
2022/09/28 00:58:28;;;;;;;5.07;1.70;;;12.30;99.90;;;;;;5070073;28;20402;-69
2022/09/28 01:00:55;;;;;;;1.70;1.10;;;12.20;99.90;;;;;;5087897;28;20471;-68
2022/09/28 01:03:21;;;;;;;1.55;0.75;;;12.30;99.90;;;;;;5089556;28;20432;-69
2022/09/28 01:05:49;;;;;;;1.40;1.00;;;12.20;99.90;;;;;;5088397;28;20982;-70
2022/09/28 01:08:17;;;;;;;2.17;0.70;;;12.20;99.90;;;;;;5071712;28;20527;-71
2022/09/28 01:10:42;;;;;;;2.95;0.98;;;12.30;99.90;;;;;;5072956;28;20937;-70
2022/09/28 01:13:10;;;;;;;1.50;0.90;;;12.30;99.90;;;;;;5089144;28;20406;-70
2022/09/28 01:15:47;;;;;;;3.40;0.95;;;12.30;99.90;;;;;;5089385;28;20408;-70
2022/09/28 01:18:24;;;;;;;1.70;0.90;;;12.30;99.90;;;;;;5089518;28;20433;-69
2022/09/28 01:21:09;;;;;;;2.17;1.10;;;12.40;99.90;;;;;;5089849;28;20481;-70
2022/09/28 01:24:09;;;;;;;2.33;0.90;;;12.40;99.90;;;;;;5076660;28;20395;-68
2022/09/28 01:26:59;;;;;;;2.35;1.00;;;12.40;99.90;;;;;;5049314;28;20492;-69
2022/09/28 01:29:27;;;;;;;2.78;0.88;;;12.40;99.90;;;;;;5089252;28;20413;-70
2022/09/28 01:32:03;;;;;;;1.10;0.70;;;12.40;99.90;;;;;;5090059;28;20511;-69
2022/09/28 01:34:38;;;;;;;2.42;0.95;;;12.40;99.90;;;;;;5090353;28;20861;-69
2022/09/28 01:37:08;;;;;;;2.95;0.85;;;12.30;99.90;;;;;;5090396;28;20386;-70
2022/09/28 01:39:39;;;;;;;1.70;0.63;;;12.20;99.90;;;;;;5088580;28;20497;-69
2022/09/28 01:42:13;;;;;;;2.28;0.75;;;12.40;99.90;;;;;;5088478;28;20398;-69
2022/09/28 01:44:42;;;;;;;1.60;0.63;;;12.40;99.90;;;;;;5089205;28;20875;-70
2022/09/28 01:47:14;;;;;;;1.00;0.50;;;12.30;99.90;;;;;;5070674;28;20755;-69
2022/09/28 01:49:47;;;;;;;4.13;0.80;;;12.20;99.90;;;;;;5089246;28;20412;-69
2022/09/28 01:52:22;;;;;;;1.52;0.57;;;12.10;99.90;;;;;;5090188;28;20822;-69
2022/09/28 01:54:54;;;;;;;1.40;0.60;;;12.10;99.90;;;;;;5088693;28;20405;-69
2022/09/28 01:57:43;;;;;;;1.40;0.60;;;12.00;99.90;;;;;;5088689;28;20405;-68
2022/09/28 02:00:12;;;;;;;0.60;0.50;;;12.00;99.90;;;;;;5089070;28;20398;-69
2022/09/28 02:03:12;;;;;;;1.05;0.50;;;11.90;99.90;;;;;;5089713;28;20378;-69
2022/09/28 02:05:41;;;;;;;1.35;0.60;;;11.80;99.90;;;;;;5081927;28;20393;-69
2022/09/28 02:08:14;;;;;;;1.50;0.50;;;11.70;99.90;;;;;;5087988;28;20408;-69
2022/09/28 02:11:11;;;;;;;0.90;0.47;;;11.70;99.90;;;;;;5088228;28;20453;-69
2022/09/28 02:14:02;;;;;;;1.02;0.47;;;11.70;99.90;;;;;;5084571;28;20783;-69
2022/09/28 02:16:34;;;;;;;0.80;0.50;;;11.70;99.90;;;;;;5089208;28;20422;-68
2022/09/28 02:19:01;;;;;;;0.75;0.40;;;11.60;99.90;;;;;;5069596;28;20490;-69
2022/09/28 02:21:57;;;;;;;0.80;0.40;;;11.70;99.90;;;;;;5089032;28;20405;-69
2022/09/28 02:24:35;;;;;;;0.60;0.30;;;11.70;99.90;;;;;;5055305;28;20402;-70
2022/09/28 02:27:16;;;;;;;1.60;0.50;;;11.80;99.90;;;;;;5080887;28;20386;-69
2022/09/28 02:29:41;;;;;;;0.70;0.40;;;11.80;99.90;;;;;;5087877;28;20485;-69
2022/09/28 02:32:07;;;;;;;0.50;0.30;;;11.70;99.90;;;;;;5091604;28;20496;-69
2022/09/28 02:34:34;;;;;;;1.40;0.50;;;11.70;99.90;;;;;;5092588;28;20402;-69
2022/09/28 02:37:00;;;;;;;1.77;0.50;;;11.70;99.90;;;;;;5091825;28;20404;-69
2022/09/28 02:39:26;;;;;;;1.20;0.40;;;11.60;99.90;;;;;;5092077;28;20737;-69
2022/09/28 02:42:01;;;;;;;1.00;0.50;;;11.60;99.90;;;;;;5091055;28;20500;-69
2022/09/28 02:44:32;;;;;;;0.70;0.40;;;11.60;99.90;;;;;;5092409;28;20467;-69
2022/09/28 02:46:58;;;;;;;1.20;0.60;;;11.60;99.90;;;;;;5091907;28;20393;-70
2022/09/28 02:49:32;;;;;;;1.00;0.40;;;11.60;99.90;;;;;;5131191;22;20801;-72
2022/09/28 02:52:07;;;;;;;1.50;0.50;;;11.60;99.90;;;;;;5113125;28;20486;-71
2022/09/28 02:54:32;;;;;;;1.20;0.30;;;11.60;99.90;;;;;;5112545;28;20396;-72
2022/09/28 02:57:22;;;;;;;0.80;0.40;;;11.60;99.90;;;;;;5112465;28;20436;-73
2022/09/28 02:59:53;;;;;;;1.00;0.40;;;11.50;99.90;;;;;;5106948;28;20484;-73
2022/09/28 03:02:33;;;;;;;1.10;0.40;;;11.50;99.90;;;;;;5113042;28;20502;-72
2022/09/28 03:05:09;;;;;;;0.95;0.45;;;11.60;99.90;;;;;;5112818;28;20400;-71
2022/09/28 03:07:57;;;;;;;1.20;0.60;;;11.50;99.90;;;;;;5112168;28;20781;-72
2022/09/28 03:10:45;;;;;;;0.60;0.33;;;11.50;99.90;;;;;;5111519;28;20858;-72
2022/09/28 03:13:12;;;;;;;0.70;0.35;;;11.50;99.90;;;;;;5111648;28;20473;-71
2022/09/28 03:15:37;;;;;;;1.10;0.40;;;11.50;99.90;;;;;;5112582;28;20804;-72
2022/09/28 03:18:03;;;;;;;0.90;0.50;;;11.60;99.90;;;;;;5112196;28;20400;-72
2022/09/28 03:20:30;;;;;;;2.30;0.40;;;11.60;99.90;;;;;;5113138;28;20425;-72
2022/09/28 03:22:56;;;;;;;1.80;0.40;;;11.60;99.90;;;;;;5110286;28;20405;-72
2022/09/28 03:25:22;;;;;;;0.50;0.30;;;11.60;99.90;;;;;;5111400;28;20458;-72
2022/09/28 03:27:47;;;;;;;1.27;0.70;;;11.70;99.90;;;;;;5112107;28;20904;-72
2022/09/28 03:30:13;;;;;;;1.20;0.50;;;11.70;99.90;;;;;;5110870;28;20396;-71
2022/09/28 03:32:39;;;;;;;0.70;0.40;;;11.60;99.90;;;;;;5107186;28;20415;-71
2022/09/28 03:35:06;;;;;;;2.38;0.50;;;11.60;99.90;;;;;;5112353;28;20396;-72
2022/09/28 03:37:32;;;;;;;1.35;0.50;;;11.40;99.90;;;;;;5110976;28;20392;-73
2022/09/28 03:39:58;;;;;;;0.50;0.40;;;11.30;99.90;;;;;;5112419;28;20399;-73
2022/09/28 03:42:23;;;;;;;1.95;0.50;;;11.20;99.90;;;;;;5110756;28;20921;-72
2022/09/28 03:44:49;;;;;;;0.60;0.40;;;11.10;99.90;;;;;;5110944;28;20750;-72
2022/09/28 03:47:16;;;;;;;1.00;0.60;;;11.00;99.90;;;;;;5111577;28;20771;-72
2022/09/28 03:49:43;;;;;;;1.00;0.50;;;11.00;99.90;;;;;;5110480;28;20407;-73
2022/09/28 03:52:08;;;;;;;1.00;0.40;;;11.00;99.90;;;;;;5112949;28;20434;-74
2022/09/28 03:54:34;;;;;;;1.47;0.50;;;11.00;99.90;;;;;;5110757;28;20392;-74
2022/09/28 03:56:59;;;;;;;1.00;0.40;;;11.00;99.90;;;;;;5111295;28;20449;-75
2022/09/28 03:59:25;;;;;;;0.70;0.40;;;11.00;99.90;;;;;;5110126;28;20775;-74
2022/09/28 04:01:51;;;;;;;0.80;0.40;;;11.10;99.90;;;;;;5110922;28;20400;-74
2022/09/28 04:04:17;;;;;;;0.60;0.40;;;11.10;99.90;;;;;;5111570;28;20400;-75
2022/09/28 04:06:43;;;;;;;1.00;0.40;;;11.10;99.90;;;;;;5112820;28;20467;-74
2022/09/28 04:09:09;;;;;;;1.15;0.50;;;11.10;99.90;;;;;;5110291;28;20994;-74
2022/09/28 04:11:35;;;;;;;2.10;0.40;;;11.20;99.90;;;;;;5112014;28;20473;-74
2022/09/28 04:14:01;;;;;;;0.87;0.50;;;11.10;99.90;;;;;;5111395;28;21140;-73
2022/09/28 04:16:26;;;;;;;0.40;0.30;;;11.20;99.90;;;;;;5111053;28;20399;-74
2022/09/28 04:18:52;;;;;;;0.80;0.40;;;11.30;99.90;;;;;;5110719;28;20480;-73
2022/09/28 04:21:19;;;;;;;0.70;0.40;;;11.40;99.90;;;;;;5111879;28;20392;-73
2022/09/28 04:23:45;;;;;;;0.40;0.30;;;11.40;99.90;;;;;;5106669;28;20419;-74
2022/09/28 04:26:20;;;;;;;1.20;0.47;;;11.40;99.90;;;;;;5111336;28;20487;-73
2022/09/28 04:31:40;;;;;;;0.80;0.35;;;11.40;99.90;;;;;;5110301;28;20560;-73
2022/09/28 04:34:06;;;;;;;1.15;0.40;;;11.30;99.90;;;;;;5111527;28;20385;-72
2022/09/28 04:36:32;;;;;;;0.40;0.30;;;11.40;99.90;;;;;;5112368;28;20391;-72
2022/09/28 04:38:58;;;;;;;0.40;0.35;;;11.30;99.90;;;;;;5108985;28;20533;-72
2022/09/28 04:41:24;;;;;;;1.00;0.50;;;11.30;99.90;;;;;;5110665;28;20420;-73
2022/09/28 04:43:50;;;;;;;0.50;0.40;;;11.40;99.90;;;;;;5109721;28;20447;-73
2022/09/28 04:46:15;;;;;;;0.77;0.40;;;11.30;99.90;;;;;;5109845;28;20810;-73
2022/09/28 04:48:41;;;;;;;0.80;0.50;;;11.30;99.90;;;;;;5110803;28;20400;-73
2022/09/28 04:51:07;;;;;;;1.20;0.40;;;11.40;99.90;;;;;;5107934;28;20914;-73
2022/09/28 04:53:33;;;;;;;0.77;0.30;;;11.40;99.90;;;;;;5110634;28;20430;-74
2022/09/28 04:56:04;;;;;;;0.50;0.30;;;11.40;99.90;;;;;;5110424;28;20400;-73
2022/09/28 04:58:31;;;;;;;0.40;0.30;;;11.40;99.90;;;;;;5107840;28;20785;-73
2022/09/28 05:01:03;;;;;;;0.60;0.30;;;11.50;99.90;;;;;;5107926;28;20388;-73
2022/09/28 05:03:28;;;;;;;0.68;0.30;;;11.50;99.90;;;;;;5108289;28;20411;-74
2022/09/28 05:05:54;;;;;;;0.80;0.40;;;11.50;99.90;;;;;;5109777;28;20400;-73
2022/09/28 05:08:20;;;;;;;0.47;0.30;;;11.50;99.90;;;;;;5108972;28;20407;-73
2022/09/28 05:10:45;;;;;;;0.40;0.30;;;11.60;99.90;;;;;;5108220;28;20492;-73
2022/09/28 05:13:12;;;;;;;1.10;0.30;;;11.60;99.90;;;;;;5109535;28;20758;-73
2022/09/28 05:15:39;;;;;;;0.40;0.30;;;11.60;99.90;;;;;;5108532;28;20388;-71
2022/09/28 05:18:06;;;;;;;0.60;0.35;;;11.60;99.90;;;;;;5108607;28;20396;-72
2022/09/28 05:20:32;;;;;;;0.60;0.30;;;11.60;99.90;;;;;;5110244;28;20403;-72
2022/09/28 05:22:57;;;;;;;1.80;0.50;;;11.50;99.90;;;;;;5110754;28;20392;-72
2022/09/28 05:25:23;;;;;;;0.50;0.40;;;11.50;99.90;;;;;;5108828;28;20411;-71
2022/09/28 05:27:55;;;;;;;0.60;0.40;;;11.50;99.90;;;;;;5113364;27;21017;-72
2022/09/28 05:30:21;;;;;;;0.40;0.30;;;11.50;99.90;;;;;;5109183;28;20411;-72
2022/09/28 05:32:49;;;;;;;0.40;0.30;;;11.50;99.90;;;;;;5110123;28;20455;-72
2022/09/28 05:35:15;;;;;;;0.70;0.30;;;11.50;99.90;;;;;;5106667;28;20400;-72
2022/09/28 05:37:41;;;;;;;1.00;0.40;;;11.40;99.90;;;;;;5110912;28;20422;-73
2022/09/28 05:40:06;;;;;;;0.40;0.20;;;11.50;99.90;;;;;;5111072;28;20382;-71
2022/09/28 05:42:32;;;;;;;0.40;0.30;;;11.50;99.90;;;;;;5110698;28;20384;-71
2022/09/28 05:44:58;;;;;;;0.90;0.40;;;11.50;99.90;;;;;;5111049;28;20742;-73
2022/09/28 05:47:24;;;;;;;0.55;0.30;;;11.50;99.90;;;;;;5109278;28;20377;-73
2022/09/28 05:49:51;;;;;;;0.80;0.30;;;11.50;99.90;;;;;;5110935;28;20781;-72
2022/09/28 05:52:16;;;;;;;0.40;0.30;;;11.50;99.90;;;;;;5110855;28;20392;-73
2022/09/28 05:54:42;;;;;;;0.50;0.40;;;11.60;99.90;;;;;;5110518;28;20380;-74
2022/09/28 05:57:08;;;;;;;0.47;0.30;;;11.60;99.90;;;;;;5107692;28;20456;-74
2022/09/28 05:59:34;;;;;;;1.10;0.30;;;11.60;99.90;;;;;;5107083;28;20400;-74
2022/09/28 06:02:00;;;;;;;0.40;0.30;;;11.60;99.90;;;;;;5108337;28;20480;-73
2022/09/28 06:04:26;;;;;;;0.50;0.40;;;11.60;99.90;;;;;;5104881;28;20778;-73
2022/09/28 06:06:51;;;;;;;0.60;0.40;;;11.60;99.90;;;;;;5109929;28;20411;-73
2022/09/28 06:09:17;;;;;;;0.50;0.40;;;11.60;99.90;;;;;;5096749;28;20750;-74
2022/09/28 06:11:42;;;;;;;0.50;0.40;;;11.60;99.90;;;;;;5092400;28;20378;-73
2022/09/28 06:14:08;;;;;;;0.70;0.40;;;11.60;99.90;;;;;;5116193;28;20384;-71
2022/09/28 06:16:34;;;;;;;0.57;0.40;;;11.60;99.90;;;;;;5123232;28;20388;-72
2022/09/28 06:19:00;;;;;;;0.60;0.40;;;11.60;99.90;;;;;;5117566;28;20856;-71
2022/09/28 06:21:26;;;;;;;0.80;0.40;;;11.60;99.90;;;;;;5131192;27;20375;-72
2022/09/28 06:23:51;;;;;;;1.10;0.50;;;11.60;99.90;;;;;;5112980;28;20466;-72
2022/09/28 06:26:17;;;;;;;0.70;0.50;;;11.60;99.90;;;;;;5110771;28;20423;-71
2022/09/28 06:28:43;;;;;;;0.50;0.35;;;11.60;99.90;;;;;;5109862;28;20390;-72
2022/09/28 06:31:08;;;;;;;0.57;0.40;;;11.70;99.90;;;;;;5105728;28;20408;-72
2022/09/28 06:33:34;;;;;;;1.48;0.90;;;11.60;99.90;;;;;;5112720;28;20968;-72
2022/09/28 06:36:00;;;;;;;1.15;1.00;;;11.50;99.90;;;;;;5119872;28;20375;-72
2022/09/28 06:38:26;;;;;;;1.65;1.10;;;11.30;99.90;;;;;;5117563;27;20746;-71
2022/09/28 06:40:51;;;;;;;1.20;0.80;;;11.10;99.90;;;;;;5130652;28;20374;-72
2022/09/28 06:43:17;;;;;;;1.10;0.90;;;11.10;99.90;;;;;;5125393;28;20378;-73
2022/09/28 06:45:49;;;;;;;1.95;1.70;;;11.00;99.90;;;;;;5125079;28;20412;-71
2022/09/28 06:48:15;;;;;;;1.75;0.90;;;11.00;99.90;;;;;;5112815;28;20400;-73
2022/09/28 06:50:41;;;;;;;1.50;0.80;;;10.90;99.90;;;;;;5103150;28;20411;-73
2022/09/28 06:53:09;;;;;;;1.85;0.85;;;10.90;99.90;;;;;;5108562;28;20932;-73
2022/09/28 06:55:41;;;;;;;1.27;0.70;;;10.70;99.90;;;;;;5110195;28;20380;-74
2022/09/28 06:58:10;;;;;;;2.03;0.70;;;10.60;99.90;;;;;;5110328;28;20376;-74
2022/09/28 07:00:38;;;;;;;2.72;1.30;;;10.50;99.90;;;;;;5108999;28;20728;-76
2022/09/28 07:03:11;;;;;;;2.75;1.00;;;10.40;99.90;;;;;;5108637;28;20912;-76
2022/09/28 07:05:41;;;;;;;3.60;0.88;;;10.30;99.90;;;;;;5113537;28;20433;-74
2022/09/28 07:08:07;;;;;;;1.17;0.90;;;10.30;99.90;;;;;;5095568;28;20404;-74
2022/09/28 07:10:32;;;;;;;2.57;1.10;;;10.30;99.90;;;;;;5093106;28;20396;-75
2022/09/28 07:13:03;;;;;;;2.03;1.30;;;10.30;99.90;;;;;;5107709;28;20396;-73
2022/09/28 07:15:30;;;;;;;1.90;1.08;;;10.30;99.90;;;;;;5105928;28;20386;-74
2022/09/28 07:17:57;;;;;;;2.45;0.90;;;10.30;99.90;;;;;;5110978;28;20387;-76
2022/09/28 07:20:24;;;;;;;2.53;1.25;;;10.40;99.90;;;;;;5113002;28;20388;-75
2022/09/28 07:22:58;;;;;;;2.50;0.80;;;10.40;99.90;;;;;;5109877;28;20484;-76
2022/09/28 07:25:24;;;;;;;2.95;1.00;;;10.40;99.90;;;;;;5111529;28;20396;-76
2022/09/28 07:27:54;;;;;;;2.70;1.20;;;10.40;99.90;;;;;;5112067;28;20380;-76
2022/09/28 07:30:20;;;;;;;1.10;1.00;;;10.40;99.90;;;;;;5111763;28;20403;-76
2022/09/28 07:32:45;;;;;;;2.70;1.00;;;10.40;99.90;;;;;;5110472;28;20400;-76
2022/09/28 07:35:11;;;;;;;1.35;1.00;;;10.40;99.90;;;;;;5112728;28;20394;-75
2022/09/28 07:37:37;;;;;;;1.83;1.00;;;10.50;99.90;;;;;;5111051;28;20509;-75
2022/09/28 07:42:49;;;;;;;1.60;1.10;;;10.50;99.90;;;;;;5109376;28;20417;-75
2022/09/28 07:45:15;;;;;;;2.10;1.20;;;10.50;99.90;;;;;;5111713;28;20792;-75
2022/09/28 07:47:40;;;;;;;3.58;1.60;;;10.50;99.90;;;;;;5096135;28;20399;-75
2022/09/28 07:50:06;;;;;;;1.25;1.10;;;10.60;99.90;;;;;;5105826;28;20420;-75
2022/09/28 07:52:33;;;;;;;2.38;1.20;;;10.60;99.90;;;;;;5112693;28;20403;-76
2022/09/28 07:55:00;;;;;;;1.25;1.10;;;10.60;99.90;;;;;;5107873;28;20485;-75
2022/09/28 07:57:26;;;;;;;2.70;1.38;;;10.60;99.90;;;;;;5110751;28;20385;-75
2022/09/28 07:59:54;;;;;;;3.22;2.25;;;10.60;99.90;;;;;;5106873;28;20443;-76
2022/09/28 08:02:20;;;;;;;2.40;1.45;;;10.60;99.90;;;;;;5107252;28;20751;-76
2022/09/28 08:04:47;;;;;;;3.70;1.80;;;10.60;99.90;;;;;;5106655;28;20398;-75
2022/09/28 08:07:17;;;;;;;2.78;1.50;;;10.60;99.90;;;;;;5112201;28;20396;-75
2022/09/28 08:09:43;;;;;;;1.40;1.30;;;10.70;99.90;;;;;;5110458;28;20407;-76
2022/09/28 08:12:09;;;;;;;2.60;1.53;;;10.60;99.90;;;;;;5101262;28;20411;-76
2022/09/28 08:14:36;;;;;;;2.47;1.50;;;10.60;99.90;;;;;;5107705;28;20479;-76
2022/09/28 08:17:03;;;;;;;1.90;1.25;;;10.70;99.90;;;;;;5101045;28;20417;-75
2022/09/28 08:21:43;;;;;;;1.88;1.20;;;10.70;99.90;;;;;;5104820;28;20399;-76
2022/09/28 08:22:18;;;;;;;3.20;1.40;;;10.60;99.90;;;;;;5104051;28;20854;-76
2022/09/28 08:24:45;;;;;;;1.95;1.55;;;10.60;99.90;;;;;;5103886;28;20400;-75
2022/09/28 08:27:12;;;;;;;2.72;1.30;;;10.70;99.90;;;;;;5103229;28;20394;-75
2022/09/28 08:29:37;;;;;;;2.90;1.77;;;10.80;99.90;;;;;;5105013;28;20489;-75
2022/09/28 08:32:06;;;;;;;3.00;1.50;;;10.80;99.90;;;;;;5103388;28;20495;-76
2022/09/28 08:34:41;;;;;;;2.50;1.10;;;10.80;99.90;;;;;;5103946;28;20376;-74
2022/09/28 08:37:08;;;;;;;4.07;1.50;;;10.70;99.90;;;;;;5105428;28;20483;-76
2022/09/28 08:39:35;;;;;;;1.10;1.00;;;10.70;99.90;;;;;;5108571;28;20450;-74
2022/09/28 08:42:09;;;;;;;2.25;1.30;;;10.80;99.90;;;;;;5109573;28;20420;-74
2022/09/28 08:44:49;;;;;;;1.10;0.88;;;10.80;99.90;;;;;;5097162;28;20388;-76
2022/09/28 08:50:10;;;;;;;1.77;1.10;;;10.90;99.90;;;;;;5108513;28;20448;-75
2022/09/28 08:52:39;;;;;;;1.90;0.80;;;10.80;99.90;;;;;;5132004;22;20428;-71
2022/09/28 08:55:30;;;;;;;2.80;1.40;;;10.80;99.90;;;;;;5109571;28;20471;-71
2022/09/28 08:58:01;;;;;;;2.20;1.20;;;10.90;99.90;;;;;;5097653;28;20420;-71
2022/09/28 09:00:46;;;;;;;1.70;0.80;;;11.00;99.90;;;;;;5109929;28;20467;-71
2022/09/28 09:03:15;;;;;;;0.70;0.70;;;10.80;99.90;;;;;;5106874;28;20381;-71
2022/09/28 09:05:46;;;;;;;1.50;1.00;;;10.80;99.90;;;;;;5084596;28;20396;-71
2022/09/28 09:08:30;;;;;;;3.20;0.90;;;10.90;99.90;;;;;;5085341;28;20406;-71
2022/09/28 09:11:24;;;;;;;1.40;0.80;;;11.00;99.90;;;;;;5086612;28;20404;-72
2022/09/28 09:14:03;;;;;;;1.17;0.98;;;11.10;99.90;;;;;;5077264;28;20495;-71
2022/09/28 09:16:39;;;;;;;2.50;0.70;;;11.00;99.90;;;;;;5084619;28;20390;-72
2022/09/28 09:19:24;;;;;;;2.22;0.80;;;10.90;99.90;;;;;;5069400;28;20469;-71
2022/09/28 09:22:01;;;;;;;2.30;0.90;;;11.00;99.90;;;;;;5076618;28;20393;-71
2022/09/28 09:24:47;;;;;;;1.00;0.90;;;11.00;99.90;;;;;;5078923;28;20410;-71
2022/09/28 09:27:15;;;;;;;1.40;1.00;;;11.00;99.90;;;;;;5088298;28;20389;-71
2022/09/28 09:30:05;;;;;;;1.60;0.90;;;11.00;99.90;;;;;;5086478;28;20401;-71
2022/09/28 09:32:56;;;;;;;1.70;0.82;;;10.90;99.90;;;;;;5081219;28;20818;-72
2022/09/28 09:35:36;;;;;;;1.85;0.93;;;11.00;99.90;;;;;;5085960;28;20424;-72
2022/09/28 09:38:28;;;;;;;1.60;0.80;;;10.90;99.90;;;;;;5085394;28;20823;-72
2022/09/28 09:41:13;;;;;;;2.07;1.00;;;11.00;99.90;;;;;;5074344;28;20453;-72
2022/09/28 09:44:22;;;;;;;1.70;0.90;;;11.10;99.90;;;;;;5081475;28;20450;-72
2022/09/28 09:46:54;;;;;;;1.83;1.73;;;11.00;99.90;;;;;;4986696;28;20468;-74
2022/09/28 09:49:36;;;;;;;1.25;0.93;;;11.00;99.90;;;;;;5068475;28;20393;-73
2022/09/28 09:52:22;;;;;;;1.50;1.25;;;11.10;99.90;;;;;;5088120;28;20490;-72
2022/09/28 09:55:15;;;;;;;1.70;1.00;;;11.10;99.90;;;;;;5087162;28;20390;-73
2022/09/28 09:57:49;;;;;;;1.60;1.30;;;11.10;99.90;;;;;;5062520;28;20503;-72
2022/09/28 10:00:16;;;;;;;3.08;1.30;;;11.10;99.90;;;;;;5084624;28;20432;-72
2022/09/28 10:02:46;;;;;;;1.70;1.20;;;11.20;99.90;;;;;;5086680;28;20431;-72
2022/09/28 10:05:11;;;;;;;1.40;0.90;;;11.20;99.90;;;;;;5087713;28;20895;-72
2022/09/28 10:07:59;;;;;;;2.35;1.10;;;11.30;99.90;;;;;;5088262;28;20459;-74
2022/09/28 10:10:33;;;;;;;2.80;1.17;;;11.10;99.90;;;;;;5089074;28;20394;-73
2022/09/28 10:12:59;;;;;;;2.70;1.27;;;11.30;99.90;;;;;;5087260;28;20402;-72
2022/09/28 10:15:30;;;;;;;2.03;1.00;;;11.20;99.90;;;;;;5085967;28;20406;-73
2022/09/28 10:17:59;;;;;;;1.20;1.10;;;11.20;99.90;;;;;;5069985;28;20617;-72
2022/09/28 10:20:28;;;;;;;2.25;0.90;;;11.30;99.90;;;;;;5074745;28;22232;-73
2022/09/28 10:22:57;;;;;;;1.35;1.00;;;11.10;99.90;;;;;;5057979;28;20502;-72
2022/09/28 10:25:24;;;;;;;2.35;1.20;;;11.10;99.90;;;;;;5068519;28;20429;-72
2022/09/28 10:27:51;;;;;;;2.33;1.10;;;11.10;99.90;;;;;;5088163;28;20416;-72
2022/09/28 10:30:22;;;;;;;1.50;1.10;;;11.10;99.90;;;;;;5082154;28;20494;-72
2022/09/28 10:32:51;;;;;;;1.50;0.90;;;11.20;99.90;;;;;;5085117;28;20405;-73
2022/09/28 10:35:28;;;;;;;2.63;0.82;;;11.10;99.90;;;;;;5077169;28;20407;-72
2022/09/28 10:38:13;;;;;;;3.70;1.10;;;11.10;99.90;;;;;;5089785;28;20378;-72
2022/09/28 10:40:44;;;;;;;3.15;1.00;;;11.20;99.90;;;;;;5088548;28;20397;-72
2022/09/28 10:43:32;;;;;;;1.70;0.77;;;11.30;99.90;;;;;;5089546;28;20461;-72
2022/09/28 10:46:09;;;;;;;1.48;1.13;;;11.30;99.90;;;;;;5088330;28;20390;-73
2022/09/28 10:49:03;;;;;;;1.30;0.90;;;11.40;99.90;;;;;;5089324;28;20382;-73
2022/09/28 10:51:50;;;;;;;1.50;1.00;;;11.30;99.90;;;;;;5090202;28;20404;-72
2022/09/28 10:54:22;;;;;;;1.20;1.00;;;11.40;99.90;;;;;;5092630;28;20382;-73
2022/09/28 10:56:48;;;;;;;1.90;0.90;;;11.30;99.90;;;;;;5092666;28;20527;-73
2022/09/28 10:59:29;;;;;;;1.93;1.10;;;11.30;99.90;;;;;;5093020;28;20385;-72
2022/09/28 11:02:12;;;;;;;1.10;1.00;;;11.30;99.90;;;;;;5087156;28;20382;-73
2022/09/28 11:04:40;;;;;;;2.23;1.30;;;11.30;99.90;;;;;;5092701;28;20461;-72
2022/09/28 11:07:23;;;;;;;2.47;1.20;;;11.30;99.90;;;;;;5091798;28;20400;-72
2022/09/28 11:09:50;;;;;;;2.20;1.50;;;11.30;99.90;;;;;;5093620;28;20401;-73
2022/09/28 11:12:20;;;;;;;2.22;1.20;;;11.30;99.90;;;;;;5093388;28;20389;-72
2022/09/28 11:14:51;;;;;;;3.80;1.60;;;11.30;99.90;;;;;;5092322;28;20924;-73
2022/09/28 11:17:22;;;;;;;1.90;1.20;;;11.20;99.90;;;;;;5080661;28;20410;-73
2022/09/28 11:19:48;;;;;;;1.60;1.17;;;11.30;99.90;;;;;;5076521;28;20771;-74
2022/09/28 11:22:30;;;;;;;1.60;1.25;;;11.30;99.90;;;;;;5085415;28;20398;-73
2022/09/28 11:25:14;;;;;;;2.10;1.20;;;11.40;99.90;;;;;;5085945;28;20898;-73
2022/09/28 11:27:40;;;;;;;3.10;1.20;;;11.30;99.90;;;;;;5079560;28;20406;-71
2022/09/28 11:30:19;;;;;;;1.10;0.98;;;11.40;99.90;;;;;;5079111;28;20400;-73
2022/09/28 11:32:46;;;;;;;2.22;1.25;;;11.10;99.90;;;;;;5089310;28;20406;-73
2022/09/28 11:35:22;;;;;;;3.40;1.48;;;11.30;99.90;;;;;;5090813;28;20401;-73
2022/09/28 11:37:53;;;;;;;1.77;1.23;;;11.30;99.90;;;;;;5059861;28;20411;-73
2022/09/28 11:40:53;;;;;;;1.23;1.05;;;11.30;99.90;;;;;;5084281;28;20402;-73
2022/09/28 11:43:50;;;;;;;2.60;1.17;;;11.40;99.90;;;;;;5089995;28;20377;-73
2022/09/28 11:46:36;;;;;;;2.50;1.10;;;11.20;99.90;;;;;;5084327;28;20923;-72
2022/09/28 11:49:18;;;;;;;1.97;1.30;;;11.20;99.90;;;;;;5091029;28;21028;-73
2022/09/28 11:51:47;;;;;;;2.30;1.20;;;11.20;99.90;;;;;;5074027;28;20396;-73
2022/09/28 11:54:25;;;;;;;2.25;1.20;;;11.20;99.90;;;;;;5060659;28;20478;-73
2022/09/28 11:56:52;;;;;;;3.20;1.10;;;11.10;99.90;;;;;;5083062;28;20398;-73
2022/09/28 11:59:30;;;;;;;2.63;1.00;;;11.20;99.90;;;;;;5089429;28;20417;-74
2022/09/28 12:01:59;;;;;;;2.70;1.27;;;11.20;99.90;;;;;;5064951;28;20444;-73
2022/09/28 12:04:38;;;;;;;1.30;0.98;;;11.20;99.90;;;;;;5060763;28;20403;-74
2022/09/28 12:07:09;;;;;;;1.70;0.90;;;11.20;99.90;;;;;;5083486;28;20398;-75
2022/09/28 12:10:10;;;;;;;2.10;1.20;;;11.10;99.90;;;;;;5088119;28;20397;-74
2022/09/28 12:12:51;;;;;;;1.00;0.90;;;11.10;99.90;;;;;;5084017;28;20413;-76
2022/09/28 12:15:41;;;;;;;1.60;0.90;;;11.10;99.90;;;;;;5089840;28;20385;-75
2022/09/28 12:18:18;;;;;;;1.25;0.85;;;11.00;99.90;;;;;;5060170;28;20399;-73
2022/09/28 12:21:12;;;;;;;2.50;0.80;;;11.00;99.90;;;;;;5084600;28;20401;-72
2022/09/28 12:23:40;;;;;;;1.77;0.77;;;11.00;99.90;;;;;;5068904;28;20459;-73
2022/09/28 12:26:34;;;;;;;1.60;0.80;;;11.00;99.90;;;;;;5061966;28;20502;-73
2022/09/28 12:29:05;;;;;;;1.10;0.70;;;11.00;99.90;;;;;;5071364;28;20425;-74
2022/09/28 12:31:39;;;;;;;0.80;0.70;;;11.00;99.90;;;;;;5079190;28;20484;-74
2022/09/28 12:34:06;;;;;;;1.10;0.70;;;11.00;99.90;;;;;;5064841;28;20445;-73
2022/09/28 12:36:40;;;;;;;1.00;0.80;;;11.00;99.90;;;;;;5091221;28;20398;-77
2022/09/28 12:39:23;;;;;;;1.83;0.70;;;10.90;99.90;;;;;;5076416;28;20478;-74
2022/09/28 12:42:16;;;;;;;2.13;0.90;;;10.90;99.90;;;;;;5069521;28;20526;-74
2022/09/28 12:45:05;;;;;;;2.60;0.93;;;11.00;99.90;;;;;;5083456;28;20469;-73
2022/09/28 12:47:57;;;;;;;1.40;0.60;;;11.00;99.90;;;;;;5076346;28;20801;-73
2022/09/28 12:50:29;;;;;;;1.10;1.00;;;11.00;99.90;;;;;;5085186;28;20762;-74
2022/09/28 12:53:28;;;;;;;1.73;0.80;;;11.00;99.90;;;;;;5081207;28;20535;-73
2022/09/28 12:56:02;;;;;;;1.40;0.90;;;10.90;99.90;;;;;;5058701;28;20394;-74
2022/09/28 12:58:30;;;;;;;1.58;1.05;;;11.00;99.90;;;;;;5084282;28;20402;-72
2022/09/28 13:01:15;;;;;;;1.23;0.60;;;11.00;99.90;;;;;;5090229;28;20378;-73
2022/09/28 13:03:55;;;;;;;1.40;0.50;;;10.90;99.90;;;;;;5079793;28;20504;-74
2022/09/28 13:06:28;;;;;;;2.00;0.90;;;10.80;99.90;;;;;;5085862;28;20931;-74
2022/09/28 13:09:12;;;;;;;1.52;0.60;;;10.90;99.90;;;;;;5089445;28;20405;-75
2022/09/28 13:11:53;;;;;;;1.10;0.70;;;10.80;99.90;;;;;;5091121;28;20378;-74
2022/09/28 13:14:52;;;;;;;3.10;0.85;;;10.60;99.90;;;;;;5092659;28;20400;-74
2022/09/28 13:17:53;;;;;;;2.20;0.80;;;10.60;99.90;;;;;;5095025;28;21210;-74
2022/09/28 13:20:31;;;;;;;0.90;0.68;;;10.60;99.90;;;;;;4991224;28;20842;-73
2022/09/28 13:23:10;;;;;;;1.42;0.80;;;10.70;99.90;;;;;;5089731;28;20443;-74